Hebei Shijiazhuang — VRIS2 — position and weather

sailwx.info

Track history (hours):
 
Tides and Currents Weather Stations Pressure Air Temp Water Temp Dewpoint Dewpoint Depression Visibility Wind Speed Wind Dir Waves Ship Positions

Hebei Shijiazhuang

Last reported at 2016-Sep-03 00:22 UTC. Time now 2016-Sep-25 22:34 UTC.
Position N 32°46' E 123°18'.
Warning: this ship's position is 22 days out of date.

Length 235 m.

Type: Cargo ship. MMSI: 477899000.

Date/timePositionNaut miles runAvg speedWind from/ knotsBaromVisibWave heightAir tempDewpointWater temp
2016-Sep-03 00:22N 32°46' E 123°18'2212.0
2016-Sep-02 22:33N 33°06' E 123°07'1211.7
2016-Sep-02 21:30N 33°17' E 123°01'1011.1
2016-Sep-02 20:33N 33°26' E 122°55'1110.3
2016-Sep-02 19:32N 33°36' E 122°50'10 9.9
2016-Sep-02 18:33N 33°45' E 122°44'10 9.4
2016-Sep-02 17:31N 33°54' E 122°40'9 8.9
2016-Sep-02 16:28N 34°01' E 122°34'1010.4
2016-Sep-02 15:31N 34°09' E 122°26'1110.9
2016-Sep-02 14:32N 34°18' E 122°19'1111.7
2016-Sep-02 13:33N 34°27' E 122°10'1211.7
2016-Sep-02 12:31N 34°36' E 122°01'2411.8
2016-Sep-02 10:30N 34°55' E 121°43'4410.6
2016-Sep-02 06:22N 35°30' E 121°10'  
Track history (hours):
 
Tides and Currents Weather Stations Pressure Air Temp Water Temp Dewpoint Dewpoint Depression Visibility Wind Speed Wind Dir Waves Ship Positions

Hebei Shijiazhuang

Last reported at 2016-Sep-03 00:22 UTC. Time now 2016-Sep-25 22:34 UTC.
Position N 32°46' E 123°18'.
Warning: this ship's position is 22 days out of date.

Length 235 m.

Type: Cargo ship. MMSI: 477899000.

Date/timePositionNaut miles runAvg speedWind from/ knotsBaromVisibWave heightAir tempDewpointWater temp
2016-Sep-03 00:22N 32°46' E 123°18'2212.0
2016-Sep-02 22:33N 33°06' E 123°07'1211.7
2016-Sep-02 21:30N 33°17' E 123°01'1011.1
2016-Sep-02 20:33N 33°26' E 122°55'1110.3
2016-Sep-02 19:32N 33°36' E 122°50'10 9.9
2016-Sep-02 18:33N 33°45' E 122°44'10 9.4
2016-Sep-02 17:31N 33°54' E 122°40'9 8.9
2016-Sep-02 16:28N 34°01' E 122°34'1010.4
2016-Sep-02 15:31N 34°09' E 122°26'1110.9
2016-Sep-02 14:32N 34°18' E 122°19'1111.7
2016-Sep-02 13:33N 34°27' E 122°10'1211.7
2016-Sep-02 12:31N 34°36' E 122°01'2411.8
2016-Sep-02 10:30N 34°55' E 121°43'4410.6
2016-Sep-02 06:22N 35°30' E 121°10'  

Dump ship's entire track history